Metar z pełnej godziny Komunikat METAR ze strony awiacja.imgw.pl Metar G00 EPLB METAR EPLB 231300Z 20004KT 140V240 CAVOK 19/05 Q1012 =